• Join FlightAware (Why Join?)
  • Login
  • US Flag 
04:47AM EDT


 

Airport Tracker/Info


-or-


 

Live Flight TrackerFlight Track Log ✈ N143DE ✈ 27-Jun-2013 ✈ KRYY - KRYY

Flight Track Log - Related Links

Times and Time Zones

All times are in EDT time to prevent confusion due to time zone crossing. See the N143DE flight status page for this flight to view local times or setup timezone preferences in your user account.

Time Position Orientation Groundspeed Altitude Reporting Facility
EDT Latitude Longitude Course Direction KTS MPH feet Rate Location/Type
06:15PM 34.0167 -84.6500 239° Southwest 168 193 2,800  Level Atlanta TRACON
06:16PM 34.0000 -84.7167 253° West 183 211 4,000 1,260 Climbing Atlanta TRACON
06:17PM 33.9667 -84.7500 220° Southwest 188 216 5,400 1,740 Climbing Atlanta TRACON
06:18PM 33.9333 -84.8000 231° Southwest 177 204 7,500 1,500 Climbing Atlanta TRACON
06:19PM 33.9000 -84.8697 240° Southwest 184 212 9,000 600 Climbing Atlanta Center
06:20PM 34.0132 -84.5971 239° Southwest  Level Estimated
06:20PM 33.8600 -84.9219 227° Southwest 207 238 9,000  Level Atlanta Center
06:21PM 33.8281 -84.9892 240° Southwest 223 257 9,800 900 Climbing Atlanta Center
06:22PM 33.8025 -85.0539 245° Southwest 223 257 10,900 600 Climbing Atlanta Center
06:23PM 33.7936 -85.1261 262° West 215 247 11,000  Climbing Atlanta Center
06:24PM 33.7931 -85.1911 269° West 215 247 10,900  Descending Atlanta Center
06:25PM 33.7819 -85.2658 260° West 220 253 11,100 660 Climbing Atlanta Center
06:26PM 33.7811 -85.3358 269° West 214 246 12,300 1,200 Climbing Atlanta Center
06:27PM 33.7783 -85.3983 267° West 209 241 13,600 900 Climbing Atlanta Center
06:28PM 33.7733 -85.4683 265° West 204 235 14,100 960 Climbing Atlanta Center
06:29PM 33.7683 -85.5381 265° West 211 243 15,600 900 Climbing Atlanta Center
06:30PM 33.7653 -85.6181 267° West 211 243 16,000 300 Climbing Atlanta Center
06:31PM 33.7600 -85.6981 265° West 233 268 16,200 900 Climbing Atlanta Center
06:32PM 33.7550 -85.7703 265° West 233 268 17,800 900 Climbing Atlanta Center
06:33PM 33.7478 -85.8300 262° West 218 251 18,000 60 Climbing Atlanta Center
06:34PM 33.7425 -85.9100 265° West 223 257 18,000  Level Atlanta Center
06:35PM 33.7369 -85.9922 265° West 242 278 18,000  Level Atlanta Center
06:36PM 33.7336 -86.0772 267° West 252 290 18,000  Level Atlanta Center
06:37PM 33.7217 -86.1642 261° West 252 290 18,000  Level Atlanta Center
06:38PM 33.6625 -86.2128 214° Southwest 241 277 18,000  Level Atlanta Center
06:39PM 33.5908 -86.2458 201° Southwest 246 283 18,000  Level Atlanta Center
06:40PM 33.5108 -86.2811 200° South 269 310 18,000 -60 Level Atlanta Center
06:41PM 33.4681 -86.3397 229° Southwest 241 277 17,900 -420 Descending Atlanta Center
06:42PM 33.5244 -86.3389 North 61 70 17,200 -420 Descending Atlanta Center
06:43PM 33.5406 -86.2544 77° East 124 143 17,100 -60 Descending Atlanta Center
06:44PM 33.5631 -86.1703 72° East 198 228 17,100  Level Atlanta Center
06:45PM 33.5869 -86.1011 67° East 231 266 17,100 -300 Level Atlanta Center
06:46PM 33.6094 -86.0144 73° East 252 290 16,600 -780 Descending Atlanta Center
06:47PM 33.6358 -85.9275 70° East 267 307 15,600 -780 Descending Atlanta Center
06:48PM 33.6622 -85.8408 70° East 272 313 15,100 -720 Descending Atlanta Center
06:49PM 33.6886 -85.7464 71° East 267 307 14,200 -1,260 Descending Atlanta Center
06:50PM 33.7169 -85.6497 71° East 287 330 12,600 -1,440 Descending Atlanta Center
06:51PM 33.7453 -85.5528 71° East 300 345 11,400 -1,200 Descending Atlanta Center
06:52PM 33.7714 -85.4583 72° East 297 342 10,300 -1,260 Descending Atlanta Center
06:53PM 33.7975 -85.3686 71° East 297 342 8,900 -960 Descending Atlanta Center
06:54PM 33.8214 -85.2867 71° East 268 308 8,400 -540 Descending Atlanta Center
06:55PM 33.8408 -85.2144 72° East 237 273 7,900 -420 Descending Atlanta Center
06:56PM 33.8622 -85.1444 70° East 218 251 7,600 -780 Descending Atlanta Center
06:57PM 33.8839 -85.0797 68° East 218 251 6,400 -1,200 Descending Atlanta Center
06:58PM 33.9053 -85.0100 70° East 223 257 5,300 -1,140 Descending Atlanta Center
06:59PM 33.9206 -84.9325 77° East 229 264 4,200 -660 Descending Atlanta Center
07:00PM 33.9417 -84.8650 69° East 218 251 4,000 -120 Descending Atlanta Center
07:01PM 33.9589 -84.8003 72° East 205 236 4,000 -300 Level Atlanta Center
07:02PM 33.9781 -84.7253 73° East 205 236 3,500 -720 Descending Atlanta Center
07:03PM 33.9931 -84.6553 75° East 212 244 2,600 -600 Descending Atlanta Center
07:05PM 34.0000 -84.5500 85° East 152 175 1,800 -420 Descending Atlanta TRACON